Time;durP1;ratioP1;P1;durP2;ratioP2;P2;SDS_P1;SDS_P2;PMS_P1;PMS_P2;Temp;Humidity;BMP_temperature;BMP_pressure;BME280_temperature;BME280_humidity;BME280_pressure;Samples;Min_cycle;Max_cycle;Signal;HPM_P1;HPM_P2
2021/03/07 00:00:12;;;;;;;1.75;1.67;;;;;;;-1.38;49.31;94468.44;5070356;28;20039;-59
2021/03/07 00:02:39;;;;;;;1.70;1.60;;;;;;;-1.33;48.67;94467.13;5077639;28;20020;-55
2021/03/07 00:05:06;;;;;;;1.80;1.65;;;;;;;-1.40;48.01;94470.09;5090514;28;20102;-58
2021/03/07 00:07:31;;;;;;;0.98;0.93;;;;;;;-1.57;49.69;94470.34;5090780;28;20044;-59
2021/03/07 00:09:57;;;;;;;0.65;0.65;;;;;;;-1.56;49.95;94458.31;5089156;28;20412;-59
2021/03/07 00:12:22;;;;;;;2.50;1.67;;;;;;;-1.76;49.79;94463.38;5090341;28;20448;-59
2021/03/07 00:14:48;;;;;;;1.60;1.52;;;;;;;-1.67;51.00;94470.78;5090464;28;20032;-59
2021/03/07 00:17:13;;;;;;;1.17;1.17;;;;;;;-1.55;50.12;94473.38;5090398;28;20077;-55
2021/03/07 00:19:39;;;;;;;0.70;0.70;;;;;;;-1.60;51.25;94471.25;5090509;28;20032;-55
2021/03/07 00:22:04;;;;;;;0.55;0.55;;;;;;;-1.60;50.53;94473.94;5090390;28;20101;-54
2021/03/07 00:24:30;;;;;;;0.63;0.63;;;;;;;-1.50;49.71;94463.91;5090393;28;20034;-53
2021/03/07 00:26:55;;;;;;;0.85;0.85;;;;;;;-1.41;48.34;94463.19;5091101;28;20115;-57
2021/03/07 00:29:21;;;;;;;0.73;0.70;;;;;;;-1.66;48.05;94418.13;5094372;28;20031;-56
2021/03/07 00:31:46;;;;;;;1.58;1.27;;;;;;;-1.47;50.52;94460.28;5094362;28;20031;-53
2021/03/07 00:34:11;;;;;;;1.25;0.95;;;;;;;-1.73;48.99;94457.03;5094392;28;20031;-51
2021/03/07 00:36:37;;;;;;;0.45;0.45;;;;;;;-1.50;49.13;94460.44;5093899;28;20035;-51
2021/03/07 00:39:04;;;;;;;3.25;1.95;;;;;;;-1.45;49.13;94451.75;5094184;28;20109;-52
2021/03/07 00:41:29;;;;;;;0.38;0.38;;;;;;;-1.57;50.95;94456.81;5094257;28;20020;-51
2021/03/07 00:43:55;;;;;;;0.98;0.98;;;;;;;-1.47;50.62;94454.16;5094084;28;20035;-52
2021/03/07 00:46:20;;;;;;;1.00;0.85;;;;;;;-1.29;51.05;94451.47;5094132;28;20024;-49
2021/03/07 00:48:46;;;;;;;1.02;0.82;;;;;;;-1.38;49.98;94451.44;5094068;28;20032;-53
2021/03/07 00:51:11;;;;;;;1.70;1.20;;;;;;;-1.36;51.70;94457.16;5094024;28;20031;-51
2021/03/07 00:53:37;;;;;;;2.40;1.58;;;;;;;-1.32;50.44;94446.97;5094029;28;20035;-57
2021/03/07 00:56:02;;;;;;;4.07;2.00;;;;;;;-1.31;50.43;94443.03;5093915;28;20032;-53
2021/03/07 00:58:27;;;;;;;0.50;0.50;;;;;;;-1.33;49.12;94442.72;5093893;28;20035;-55
2021/03/07 01:00:53;;;;;;;2.47;2.33;;;;;;;-1.42;49.57;94440.00;5093918;28;20038;-56
2021/03/07 01:03:18;;;;;;;7.20;4.70;;;;;;;-1.29;51.28;94440.63;5085861;28;20032;-53
2021/03/07 01:05:44;;;;;;;2.53;1.95;;;;;;;-1.40;50.94;94437.59;5093779;28;20024;-54
2021/03/07 01:08:09;;;;;;;1.52;1.42;;;;;;;-1.77;51.57;94437.47;5093841;28;20081;-51
2021/03/07 01:10:38;;;;;;;2.35;2.25;;;;;;;-1.78;52.38;94440.66;5093690;28;20028;-52
2021/03/07 01:13:06;;;;;;;4.03;2.00;;;;;;;-1.64;51.52;94438.13;5093884;28;20414;-52
2021/03/07 01:15:31;;;;;;;3.80;1.58;;;;;;;-1.61;51.33;94439.97;5092280;28;20043;-51
2021/03/07 01:17:57;;;;;;;1.58;1.45;;;;;;;-1.88;52.83;94442.53;5093578;28;20110;-51
2021/03/07 01:20:23;;;;;;;2.45;2.28;;;;;;;-2.18;52.87;94440.59;5092256;28;20098;-49
2021/03/07 01:22:49;;;;;;;0.50;0.50;;;;;;;-2.38;53.66;94437.47;5093213;28;20024;-47
2021/03/07 01:25:17;;;;;;;2.22;1.25;;;;;;;-2.32;53.62;94435.72;5093483;28;20085;-48
2021/03/07 01:27:43;;;;;;;0.50;0.50;;;;;;;-2.22;54.44;94436.50;5093385;28;20030;-49
2021/03/07 01:30:09;;;;;;;0.25;0.25;;;;;;;-2.39;54.33;94433.25;5093199;28;20118;-50
2021/03/07 01:32:36;;;;;;;0.93;0.90;;;;;;;-2.52;54.72;94427.16;5093179;28;20120;-49
2021/03/07 01:35:02;;;;;;;0.73;0.40;;;;;;;-2.56;54.32;94431.97;5093283;28;20548;-50
2021/03/07 01:37:28;;;;;;;0.25;0.25;;;;;;;-2.56;54.50;94426.56;5092991;28;20028;-48
2021/03/07 01:39:53;;;;;;;0.45;0.45;;;;;;;-2.63;54.30;94426.78;5092972;28;20047;-50
2021/03/07 01:42:20;;;;;;;0.40;0.40;;;;;;;-2.58;53.45;94432.41;5092997;28;20028;-51
2021/03/07 01:44:46;;;;;;;0.45;0.28;;;;;;;-2.71;55.47;94422.84;5092974;28;20036;-53
2021/03/07 01:47:12;;;;;;;0.30;0.30;;;;;;;-2.81;55.49;94427.41;5092816;28;20080;-49
2021/03/07 01:49:38;;;;;;;0.68;0.68;;;;;;;-2.64;54.96;94419.91;5080174;28;20500;-47
2021/03/07 01:52:03;;;;;;;0.55;0.55;;;;;;;-2.62;56.13;94433.72;5092924;28;20480;-52
2021/03/07 01:54:29;;;;;;;0.40;0.40;;;;;;;-2.75;56.22;94411.41;5091642;28;20036;-60
2021/03/07 01:56:55;;;;;;;0.82;0.82;;;;;;;-2.97;57.50;94424.13;5092748;28;20507;-49
2021/03/07 01:59:21;;;;;;;0.45;0.45;;;;;;;-2.96;57.20;94414.81;5082289;28;20039;-53
2021/03/07 02:01:48;;;;;;;1.20;1.20;;;;;;;-3.05;56.97;94414.78;5072663;28;20412;-49
2021/03/07 02:04:14;;;;;;;1.52;0.75;;;;;;;-3.17;56.49;94408.22;5092519;28;20028;-56
2021/03/07 02:06:40;;;;;;;0.30;0.30;;;;;;;-2.90;56.69;94405.72;5092601;28;20481;-50
2021/03/07 02:09:06;;;;;;;1.02;0.93;;;;;;;-2.91;55.64;94412.34;5092489;28;20034;-49
2021/03/07 02:11:32;;;;;;;0.38;0.38;;;;;;;-3.07;56.50;94418.66;5091329;28;20038;-53
2021/03/07 02:13:59;;;;;;;0.30;0.30;;;;;;;-2.90;57.25;94413.09;5091267;28;20042;-50
2021/03/07 02:16:25;;;;;;;1.17;0.85;;;;;;;-3.04;57.75;94418.97;5091237;28;20110;-47
2021/03/07 02:18:52;;;;;;;0.40;0.40;;;;;;;-3.32;58.36;94412.59;5090421;28;20036;-47
2021/03/07 02:21:23;;;;;;;0.65;0.65;;;;;;;-3.20;57.66;94423.34;5091703;28;20053;-48
2021/03/07 02:23:58;;;;;;;0.55;0.55;;;;;;;-3.36;58.04;94417.34;5092370;28;20036;-50
2021/03/07 02:26:24;;;;;;;0.88;0.88;;;;;;;-3.48;58.83;94416.19;5092001;28;20462;-48
2021/03/07 02:28:49;;;;;;;0.50;0.50;;;;;;;-3.73;59.02;94410.06;5092179;28;20024;-50
2021/03/07 02:31:18;;;;;;;1.17;1.17;;;;;;;-3.66;58.84;94417.94;5082376;28;20032;-50
2021/03/07 02:33:43;;;;;;;0.20;0.20;;;;;;;-3.71;59.40;94424.63;5084981;28;20103;-52
2021/03/07 02:36:16;;;;;;;0.20;0.20;;;;;;;-3.46;59.50;94413.78;5091430;28;20026;-47
2021/03/07 02:38:43;;;;;;;0.20;0.20;;;;;;;-3.54;58.52;94412.53;5082173;28;20063;-49
2021/03/07 02:41:11;;;;;;;1.05;1.00;;;;;;;-3.38;57.61;94409.66;5081800;28;20024;-53
2021/03/07 02:43:38;;;;;;;0.63;0.63;;;;;;;-3.39;57.30;94413.56;5091626;28;20062;-50
2021/03/07 02:46:05;;;;;;;1.58;1.48;;;;;;;-3.36;57.79;94415.41;5091945;28;20031;-47
2021/03/07 02:48:31;;;;;;;3.70;1.48;;;;;;;-3.44;57.86;94406.00;5091005;28;20423;-48
2021/03/07 02:50:59;;;;;;;0.68;0.55;;;;;;;-3.36;58.12;94418.13;5089837;28;20106;-47
2021/03/07 02:53:27;;;;;;;0.45;0.45;;;;;;;-3.48;57.93;94418.13;5091757;28;20107;-48
2021/03/07 02:55:56;;;;;;;0.35;0.35;;;;;;;-3.54;57.75;94414.47;5091932;28;20097;-48
2021/03/07 02:58:23;;;;;;;0.20;0.20;;;;;;;-3.65;56.92;94389.75;5091660;28;20409;-50
2021/03/07 03:00:56;;;;;;;0.20;0.20;;;;;;;-3.96;58.32;94420.00;5091464;28;20118;-48
2021/03/07 03:03:26;;;;;;;1.38;1.27;;;;;;;-3.84;58.56;94418.50;5091537;28;20058;-50
2021/03/07 03:05:52;;;;;;;0.43;0.43;;;;;;;-4.05;59.16;94417.19;5089931;28;20089;-50
2021/03/07 03:08:17;;;;;;;1.23;1.20;;;;;;;-3.85;59.01;94417.75;5089966;28;20085;-47
2021/03/07 03:10:43;;;;;;;0.55;0.55;;;;;;;-4.00;58.66;94395.09;5082299;28;20025;-46
2021/03/07 03:13:09;;;;;;;0.20;0.20;;;;;;;-3.89;59.35;94417.09;5091247;28;20123;-48
2021/03/07 03:15:36;;;;;;;1.60;0.75;;;;;;;-3.98;59.46;94416.22;5091417;28;20039;-47
2021/03/07 03:18:01;;;;;;;0.80;0.80;;;;;;;-4.08;59.26;94404.59;5090061;28;20504;-49
2021/03/07 03:20:27;;;;;;;0.20;0.20;;;;;;;-3.93;59.38;94407.59;5090084;28;20110;-49
2021/03/07 03:22:53;;;;;;;0.63;0.55;;;;;;;-3.94;59.04;94416.88;5089038;28;20020;-50
2021/03/07 03:25:18;;;;;;;0.75;0.75;;;;;;;-3.93;58.59;94415.69;5090564;28;20103;-45
2021/03/07 03:27:44;;;;;;;0.20;0.20;;;;;;;-3.89;59.01;94411.69;5091106;28;20027;-44
2021/03/07 03:30:16;;;;;;;2.15;0.90;;;;;;;-4.14;59.19;94410.97;5091057;28;20409;-45
2021/03/07 03:32:43;;;;;;;1.00;0.77;;;;;;;-4.19;59.61;94414.19;5080342;28;20782;-45
2021/03/07 03:35:14;;;;;;;0.90;0.90;;;;;;;-4.20;60.69;94415.38;5070713;28;20028;-46
2021/03/07 03:37:43;;;;;;;1.15;1.05;;;;;;;-4.26;60.25;94415.16;5070490;28;20028;-46
2021/03/07 03:40:14;;;;;;;0.20;0.20;;;;;;;-4.23;59.44;94408.13;5070567;28;20032;-47
2021/03/07 03:42:40;;;;;;;1.75;1.63;;;;;;;-4.31;60.31;94412.97;5069299;28;20112;-46
2021/03/07 03:45:07;;;;;;;1.15;0.88;;;;;;;-4.42;59.60;94412.56;5073170;28;20028;-46
2021/03/07 03:47:34;;;;;;;1.00;1.00;;;;;;;-4.26;60.29;94414.38;5090812;28;20053;-46
2021/03/07 03:50:00;;;;;;;7.93;1.23;;;;;;;-4.45;59.47;94415.34;5090907;28;20031;-50
2021/03/07 03:52:27;;;;;;;1.15;1.15;;;;;;;-4.41;60.36;94416.75;5089332;28;20111;-47
2021/03/07 03:55:00;;;;;;;0.65;0.65;;;;;;;-4.53;60.40;94416.72;5090710;28;20027;-48
2021/03/07 03:57:29;;;;;;;0.88;0.88;;;;;;;-4.49;60.85;94423.53;5089443;28;20082;-50
2021/03/07 03:59:56;;;;;;;2.35;1.48;;;;;;;-4.51;60.25;94400.88;5089439;28;20028;-47
2021/03/07 04:02:23;;;;;;;1.38;1.27;;;;;;;-4.55;60.06;94413.72;5083625;28;20077;-52
2021/03/07 04:04:51;;;;;;;1.52;1.50;;;;;;;-4.71;60.40;94420.69;5070214;28;20037;-51
2021/03/07 04:07:17;;;;;;;1.25;1.25;;;;;;;-4.69;60.14;94433.72;5069126;28;20024;-50
2021/03/07 04:09:42;;;;;;;0.45;0.45;;;;;;;-4.62;59.99;94417.34;5069193;28;20034;-51
2021/03/07 04:12:08;;;;;;;1.27;1.27;;;;;;;-4.81;60.42;94404.81;5070293;28;20028;-48
2021/03/07 04:14:34;;;;;;;0.20;0.20;;;;;;;-4.83;60.50;94420.66;5069006;28;20028;-49
2021/03/07 04:17:02;;;;;;;2.55;2.35;;;;;;;-4.73;61.47;94419.59;5070054;28;20417;-47
2021/03/07 04:19:28;;;;;;;0.22;0.22;;;;;;;-4.89;61.57;94415.03;5070225;28;20471;-47
2021/03/07 04:21:53;;;;;;;2.28;1.33;;;;;;;-4.97;62.05;94411.00;5069182;28;20058;-50
2021/03/07 04:24:19;;;;;;;0.35;0.35;;;;;;;-5.14;61.46;94406.09;5069845;28;20503;-49
2021/03/07 04:26:45;;;;;;;1.48;1.33;;;;;;;-5.25;61.30;94405.63;5069115;28;20032;-48
2021/03/07 04:29:11;;;;;;;0.55;0.55;;;;;;;-5.43;61.64;94403.38;5069231;28;20567;-50
2021/03/07 04:31:37;;;;;;;1.02;1.02;;;;;;;-5.47;61.69;94411.56;5068927;28;20114;-50
2021/03/07 04:34:02;;;;;;;3.60;1.40;;;;;;;-5.57;62.72;94414.50;5068875;28;20032;-48
2021/03/07 04:36:28;;;;;;;1.42;1.38;;;;;;;-5.30;62.88;94412.28;5068848;28;20025;-48
2021/03/07 04:38:54;;;;;;;2.75;1.40;;;;;;;-5.25;62.38;94403.69;5068655;28;20053;-48
2021/03/07 04:41:20;;;;;;;1.20;1.17;;;;;;;-5.24;61.91;94389.03;5070209;28;20025;-48
2021/03/07 04:43:54;;;;;;;0.50;0.50;;;;;;;-5.22;62.25;94410.16;5070072;28;20104;-48
2021/03/07 04:46:21;;;;;;;1.30;1.17;;;;;;;-5.19;62.17;94398.53;5069952;28;20479;-49
2021/03/07 04:48:47;;;;;;;0.55;0.55;;;;;;;-5.03;61.95;94409.25;5089137;28;20093;-48
2021/03/07 04:51:12;;;;;;;2.28;1.48;;;;;;;-5.20;61.14;94405.88;5090188;28;20123;-44
2021/03/07 04:53:38;;;;;;;3.05;1.88;;;;;;;-5.32;61.60;94406.56;5090017;28;20111;-46
2021/03/07 04:56:04;;;;;;;3.28;2.92;;;;;;;-5.31;61.31;94413.47;5090068;28;20031;-45
2021/03/07 04:58:29;;;;;;;1.95;1.85;;;;;;;-5.18;61.28;94408.13;5089899;28;20031;-44
2021/03/07 05:00:54;;;;;;;1.10;1.10;;;;;;;-5.20;61.66;94413.94;5090185;28;20024;-44
2021/03/07 05:03:20;;;;;;;0.30;0.30;;;;;;;-5.19;61.45;94412.75;5076764;28;20020;-46
2021/03/07 05:05:49;;;;;;;1.17;1.10;;;;;;;-5.27;61.35;94406.06;5069656;28;20417;-46
2021/03/07 05:08:15;;;;;;;0.98;0.98;;;;;;;-5.28;62.59;94415.28;5069666;28;20125;-45
2021/03/07 05:10:41;;;;;;;1.35;1.02;;;;;;;-5.23;62.22;94417.47;5069655;28;20028;-45
2021/03/07 05:13:06;;;;;;;1.00;1.00;;;;;;;-5.22;62.21;94416.31;5070685;28;20033;-44
2021/03/07 05:15:32;;;;;;;1.30;0.85;;;;;;;-5.21;61.73;94425.13;5073268;28;20107;-46
2021/03/07 05:17:57;;;;;;;0.50;0.50;;;;;;;-5.28;61.95;94422.63;5073299;28;20099;-44
2021/03/07 05:20:23;;;;;;;8.90;1.27;;;;;;;-5.25;62.21;94419.06;5073282;28;20043;-44
2021/03/07 05:22:48;;;;;;;1.27;1.27;;;;;;;-5.20;62.14;94423.94;5073260;28;20025;-46
2021/03/07 05:25:14;;;;;;;2.33;2.15;;;;;;;-5.11;61.86;94419.44;5073060;28;20036;-46
2021/03/07 05:27:40;;;;;;;0.93;0.93;;;;;;;-5.35;62.00;94422.81;5071716;28;20094;-45
2021/03/07 05:30:06;;;;;;;1.10;1.10;;;;;;;-5.23;62.11;94412.09;5071821;28;20031;-45
2021/03/07 05:32:31;;;;;;;1.30;1.20;;;;;;;-5.03;61.97;94417.34;5073115;28;20118;-44
2021/03/07 05:34:57;;;;;;;0.90;0.90;;;;;;;-5.11;61.00;94427.53;5073257;28;20032;-47
2021/03/07 05:37:22;;;;;;;4.88;2.45;;;;;;;-4.99;60.55;94426.06;5073004;28;20481;-49
2021/03/07 05:39:48;;;;;;;2.67;2.58;;;;;;;-4.97;61.40;94424.47;5072843;28;20060;-47
2021/03/07 05:42:13;;;;;;;5.30;3.60;;;;;;;-4.83;61.57;94426.03;5072888;28;20529;-46
2021/03/07 05:44:39;;;;;;;12.15;4.35;;;;;;;-4.91;61.46;94411.22;5072925;28;20032;-47
2021/03/07 05:47:05;;;;;;;1.63;1.52;;;;;;;-4.77;61.66;94410.84;5072722;28;20471;-47
2021/03/07 05:49:31;;;;;;;10.48;2.05;;;;;;;-5.15;61.57;94386.50;5072672;28;20103;-49
2021/03/07 05:51:57;;;;;;;2.03;1.60;;;;;;;-4.78;62.46;94428.94;5072819;28;20428;-51
2021/03/07 05:54:23;;;;;;;2.55;2.05;;;;;;;-4.96;62.39;94422.53;5072727;28;20079;-50
2021/03/07 05:56:49;;;;;;;8.68;3.65;;;;;;;-4.87;62.15;94420.72;5071531;28;20044;-52
2021/03/07 05:59:15;;;;;;;2.38;2.20;;;;;;;-4.65;61.97;94427.03;5072639;28;20029;-48
2021/03/07 06:01:40;;;;;;;1.65;1.63;;;;;;;-4.37;61.72;94422.03;5071179;28;20099;-51
2021/03/07 06:04:05;;;;;;;2.88;2.65;;;;;;;-4.16;60.73;94413.31;5072495;28;20477;-49
2021/03/07 06:06:32;;;;;;;33.63;7.60;;;;;;;-4.24;60.26;94401.22;5073417;28;20065;-48
2021/03/07 06:09:16;;;;;;;10.57;6.65;;;;;;;-3.77;60.99;94418.28;5072396;28;20072;-50
2021/03/07 06:11:41;;;;;;;4.05;3.75;;;;;;;-3.58;60.48;94414.59;5080251;28;20079;-47
2021/03/07 06:14:26;;;;;;;8.15;5.22;;;;;;;-3.48;58.78;94377.63;5083663;28;20500;-47
2021/03/07 06:17:04;;;;;;;13.02;11.88;;;;;;;-2.98;57.51;94411.81;5092248;28;20031;-47
2021/03/07 06:19:31;;;;;;;11.35;10.25;;;;;;;-2.83;56.62;94413.59;5092198;28;20036;-46
2021/03/07 06:22:11;;;;;;;23.92;9.85;;;;;;;-2.71;57.08;94415.50;5091887;28;20024;-47
2021/03/07 06:24:39;;;;;;;13.90;10.18;;;;;;;-2.53;56.80;94393.97;5089795;28;20032;-50
2021/03/07 06:27:09;;;;;;;10.43;8.48;;;;;;;-2.28;56.56;94409.28;5091644;28;20032;-47
2021/03/07 06:29:37;;;;;;;13.52;6.95;;;;;;;-2.27;57.27;94413.50;5091492;28;20044;-49
2021/03/07 06:32:15;;;;;;;3.67;2.92;;;;;;;-2.20;55.71;94410.53;5091519;28;20035;-46
2021/03/07 06:34:47;;;;;;;5.57;4.25;;;;;;;-2.11;56.35;94410.59;5091579;28;20032;-48
2021/03/07 06:37:13;;;;;;;4.93;4.47;;;;;;;-1.83;56.38;94411.44;5091661;28;20412;-51
2021/03/07 06:39:38;;;;;;;5.38;3.75;;;;;;;-1.70;55.54;94407.44;5091579;28;20040;-46
2021/03/07 06:42:06;;;;;;;2.47;2.10;;;;;;;-1.63;55.09;94414.53;5091585;28;20028;-50
2021/03/07 06:44:32;;;;;;;5.05;4.55;;;;;;;-1.45;55.28;94411.84;5091686;28;20474;-46
2021/03/07 06:47:16;;;;;;;2.63;2.53;;;;;;;-1.67;54.26;94384.13;5091748;28;20032;-46
2021/03/07 06:49:41;;;;;;;7.00;3.75;;;;;;;-1.35;55.70;94404.50;5091826;28;20119;-49
2021/03/07 06:52:14;;;;;;;4.03;3.28;;;;;;;-1.07;55.78;94401.41;5091699;28;20107;-45
2021/03/07 06:54:41;;;;;;;2.95;2.42;;;;;;;-0.56;53.08;94390.66;5091674;28;20031;-45
2021/03/07 06:57:07;;;;;;;11.07;1.88;;;;;;;0.11;51.84;94397.75;5091835;28;20031;-46
2021/03/07 06:59:33;;;;;;;1.95;1.85;;;;;;;1.86;48.77;94399.09;5091626;28;20512;-48
2021/03/07 07:01:59;;;;;;;1.90;1.80;;;;;;;3.82;43.48;94391.81;5091532;28;20026;-47
2021/03/07 07:04:38;;;;;;;0.95;0.95;;;;;;;5.56;38.30;94384.97;5091305;28;20099;-47
2021/03/07 07:07:22;;;;;;;2.28;1.55;;;;;;;7.28;34.99;94382.94;5091424;28;20024;-46
2021/03/07 07:09:56;;;;;;;4.07;0.93;;;;;;;8.03;32.69;94381.59;5091153;28;20028;-45
2021/03/07 07:12:23;;;;;;;4.00;2.67;;;;;;;8.60;29.78;94383.44;5091328;28;20061;-44
2021/03/07 07:14:50;;;;;;;1.55;1.20;;;;;;;8.90;31.04;94384.19;5091386;28;20461;-48
2021/03/07 07:17:18;;;;;;;3.67;2.42;;;;;;;10.09;28.56;94383.06;5070971;28;20033;-43
2021/03/07 07:19:45;;;;;;;3.08;2.05;;;;;;;11.65;25.72;94374.34;5072235;28;20040;-43
2021/03/07 07:22:13;;;;;;;3.38;3.08;;;;;;;11.34;24.62;94375.97;5090680;28;20016;-43
2021/03/07 07:24:41;;;;;;;2.10;1.67;;;;;;;11.25;25.03;94370.13;5091145;28;20024;-45
2021/03/07 07:27:07;;;;;;;5.82;3.17;;;;;;;11.86;24.52;94360.63;5090464;28;20119;-45
2021/03/07 07:29:34;;;;;;;7.25;2.38;;;;;;;12.39;23.69;94364.72;5090392;28;20111;-45
2021/03/07 07:32:07;;;;;;;4.18;2.65;;;;;;;13.53;22.15;94360.88;5087468;28;20035;-49
2021/03/07 07:34:41;;;;;;;2.58;1.63;;;;;;;14.00;22.13;94349.44;5078799;28;20035;-48
2021/03/07 07:38:01;;;;;;;1.42;1.33;;;;;;;14.84;20.77;94351.13;5073081;28;20039;-45
2021/03/07 07:40:40;;;;;;;3.85;2.40;;;;;;;15.51;19.70;94336.47;5058461;28;20123;-45
2021/03/07 07:43:07;;;;;;;4.90;3.28;;;;;;;16.26;19.73;94340.31;5083353;28;20016;-50
2021/03/07 07:45:32;;;;;;;7.53;3.70;;;;;;;16.60;18.89;94341.25;5090241;28;20085;-43
2021/03/07 07:47:58;;;;;;;2.88;2.10;;;;;;;17.02;18.55;94340.59;5090062;28;20024;-45
2021/03/07 07:52:56;;;;;;;4.68;2.53;;;;;;;15.46;20.65;94334.66;5090845;28;20085;-45
2021/03/07 07:55:45;;;;;;;5.85;2.80;;;;;;;15.85;21.03;94338.81;5090925;28;20028;-46
2021/03/07 07:58:11;;;;;;;;;;;;;;;16.53;20.52;94333.69;5091351;28;20024;-43
2021/03/07 08:00:48;;;;;;;7.15;1.00;;;;;;;17.40;19.60;94332.63;5090559;28;19908;-42
2021/03/07 08:03:39;;;;;;;5.00;1.85;;;;;;;17.24;19.04;94331.28;5090213;28;20024;-47
2021/03/07 08:06:06;;;;;;;0.95;0.90;;;;;;;14.69;21.40;94328.88;5069939;28;20024;-42
2021/03/07 08:08:33;;;;;;;1.98;1.63;;;;;;;15.48;20.97;94320.91;5090189;28;20024;-44
2021/03/07 08:10:58;;;;;;;0.98;0.68;;;;;;;15.54;21.10;94313.09;5089904;28;20028;-47
2021/03/07 08:13:27;;;;;;;1.40;1.30;;;;;;;16.05;19.95;94312.72;5087787;28;20026;-44
2021/03/07 08:15:56;;;;;;;0.88;0.65;;;;;;;16.11;20.91;94295.81;5069054;28;20413;-41
2021/03/07 08:18:23;;;;;;;0.55;0.55;;;;;;;16.54;19.81;94303.75;5088522;28;20035;-47
2021/03/07 08:20:51;;;;;;;0.82;0.82;;;;;;;16.45;20.55;94296.72;5089220;28;20161;-43
2021/03/07 08:23:19;;;;;;;1.10;0.60;;;;;;;15.89;21.84;94295.34;5089212;28;20030;-43
2021/03/07 08:25:54;;;;;;;0.40;0.40;;;;;;;16.30;19.37;94296.81;5089299;28;20040;-45
2021/03/07 08:28:32;;;;;;;0.73;0.73;;;;;;;14.02;21.59;94302.44;5089433;28;20031;-44
2021/03/07 08:30:59;;;;;;;0.40;0.40;;;;;;;12.17;24.33;94305.06;5089182;28;20028;-46
2021/03/07 08:33:26;;;;;;;1.15;1.15;;;;;;;10.36;26.87;94301.88;5087905;28;20554;-46
2021/03/07 08:36:24;;;;;;;0.70;0.70;;;;;;;9.10;28.71;94297.59;5089352;28;20064;-48
2021/03/07 08:38:49;;;;;;;0.50;0.50;;;;;;;9.35;29.78;94290.03;5088967;28;20062;-50
2021/03/07 08:41:22;;;;;;;0.50;0.50;;;;;;;11.44;26.81;94285.03;5089049;28;20032;-48
2021/03/07 08:43:49;;;;;;;0.40;0.40;;;;;;;12.56;24.86;94279.22;5089245;28;20031;-48
2021/03/07 08:46:16;;;;;;;0.40;0.40;;;;;;;13.36;23.80;94286.44;5089279;28;20632;-48
2021/03/07 08:48:53;;;;;;;2.35;0.57;;;;;;;14.67;21.83;94268.31;5090890;28;20097;-50
2021/03/07 08:51:28;;;;;;;0.88;0.65;;;;;;;15.40;20.44;94264.47;5091848;28;20451;-50
2021/03/07 08:54:00;;;;;;;0.52;0.52;;;;;;;15.08;21.22;94259.56;5091805;28;20024;-45
2021/03/07 08:56:26;;;;;;;1.45;1.00;;;;;;;15.53;19.81;94255.19;5090831;28;20055;-45
2021/03/07 08:58:51;;;;;;;0.90;0.52;;;;;;;14.92;20.56;94241.41;5091715;28;20097;-47
2021/03/07 09:01:17;;;;;;;0.98;0.98;;;;;;;16.20;19.66;94242.28;5091993;28;20024;-45
2021/03/07 09:03:52;;;;;;;0.52;0.52;;;;;;;16.08;19.65;94241.97;5093031;28;20069;-47
2021/03/07 09:06:19;;;;;;;0.20;0.20;;;;;;;16.38;19.60;94232.66;5092618;28;20024;-50
2021/03/07 09:08:44;;;;;;;1.48;0.93;;;;;;;16.73;19.40;94225.91;5092646;28;20111;-49
2021/03/07 09:11:10;;;;;;;3.33;1.25;;;;;;;17.10;19.36;94222.03;5092554;28;20103;-47
2021/03/07 09:13:46;;;;;;;2.75;1.40;;;;;;;17.49;17.99;94231.47;5092823;28;20027;-45
2021/03/07 09:16:11;;;;;;;1.42;1.02;;;;;;;17.54;17.63;94222.16;5092472;28;20455;-45
2021/03/07 09:18:40;;;;;;;0.50;0.50;;;;;;;17.19;18.45;94203.91;5092686;28;20086;-47
2021/03/07 09:21:09;;;;;;;2.42;0.50;;;;;;;17.02;18.79;94206.69;5092467;28;20020;-45
2021/03/07 09:23:45;;;;;;;2.72;2.08;;;;;;;18.54;17.27;94201.41;5092504;28;20035;-47
2021/03/07 09:26:19;;;;;;;3.15;0.63;;;;;;;18.72;15.95;94200.00;5092262;28;20020;-46
2021/03/07 09:28:55;;;;;;;0.47;0.45;;;;;;;19.43;15.42;94200.44;5078865;28;20043;-45
2021/03/07 09:31:32;;;;;;;1.88;0.68;;;;;;;18.74;16.26;94197.38;5072131;28;20028;-46
2021/03/07 09:34:01;;;;;;;0.30;0.30;;;;;;;19.17;16.05;94200.53;5073134;28;20071;-44
2021/03/07 09:36:37;;;;;;;0.45;0.45;;;;;;;18.68;16.80;94194.09;5072098;28;20552;-46
2021/03/07 09:39:07;;;;;;;0.85;0.85;;;;;;;18.69;18.50;94186.47;5071649;28;20060;-48
2021/03/07 09:41:41;;;;;;;1.00;0.95;;;;;;;19.11;16.98;94192.44;5090849;28;20432;-46
2021/03/07 09:44:17;;;;;;;0.80;0.80;;;;;;;18.64;16.03;94184.66;5089739;28;20036;-46
2021/03/07 09:46:44;;;;;;;1.50;0.90;;;;;;;18.99;15.87;94185.94;5085226;28;20027;-46
2021/03/07 09:49:13;;;;;;;0.95;0.70;;;;;;;19.36;16.02;94175.41;5079051;28;20509;-45
2021/03/07 09:51:40;;;;;;;0.30;0.30;;;;;;;19.52;16.79;94180.09;5091472;28;20027;-46
2021/03/07 09:54:10;;;;;;;1.20;0.95;;;;;;;19.14;16.38;94168.13;5078761;28;20028;-44
2021/03/07 09:56:35;;;;;;;0.82;0.82;;;;;;;20.51;15.11;94159.06;5091352;28;20028;-45
2021/03/07 09:59:31;;;;;;;0.20;0.20;;;;;;;21.25;13.30;94166.19;5090480;28;20028;-46
2021/03/07 10:01:57;;;;;;;1.08;0.63;;;;;;;19.94;15.69;94156.44;5089857;28;20086;-46
2021/03/07 10:04:45;;;;;;;1.10;0.90;;;;;;;19.80;15.21;94163.84;5091338;28;20596;-46
2021/03/07 10:07:10;;;;;;;0.63;0.63;;;;;;;19.37;16.54;94160.06;5071095;28;20425;-46
2021/03/07 10:09:55;;;;;;;2.30;1.58;;;;;;;19.10;17.13;94148.25;5071265;28;20032;-47
2021/03/07 10:12:21;;;;;;;0.98;0.55;;;;;;;19.85;17.21;94140.38;5071042;28;20040;-49
2021/03/07 10:14:52;;;;;;;1.38;1.10;;;;;;;20.31;16.35;94127.56;5070038;28;20093;-47
2021/03/07 10:17:18;;;;;;;0.75;0.75;;;;;;;19.12;15.38;94128.78;5071233;28;20421;-50
2021/03/07 10:19:43;;;;;;;0.85;0.70;;;;;;;18.07;16.45;94126.47;5070153;28;20032;-45
2021/03/07 10:22:09;;;;;;;0.47;0.47;;;;;;;18.31;16.77;94133.16;5069540;28;20020;-46
2021/03/07 10:24:34;;;;;;;0.70;0.68;;;;;;;18.58;17.11;94129.00;5088680;28;20052;-46
2021/03/07 10:27:03;;;;;;;0.60;0.60;;;;;;;17.92;18.01;94119.03;5091074;28;20024;-51
2021/03/07 10:29:31;;;;;;;0.75;0.73;;;;;;;19.05;18.66;94108.03;5091365;28;20028;-57
2021/03/07 10:32:18;;;;;;;1.70;1.20;;;;;;;19.40;17.86;94108.47;5090881;28;20043;-47
2021/03/07 10:34:51;;;;;;;0.60;0.60;;;;;;;19.60;17.52;94107.09;5091215;28;20107;-48
2021/03/07 10:37:36;;;;;;;2.22;2.05;;;;;;;20.62;17.37;94099.50;5091036;28;20036;-48
2021/03/07 10:40:07;;;;;;;1.58;0.60;;;;;;;20.40;16.42;94109.22;5090778;28;20044;-51
2021/03/07 10:42:35;;;;;;;1.30;1.00;;;;;;;21.09;14.96;94094.94;5091086;28;20024;-50
2021/03/07 10:45:20;;;;;;;2.67;0.70;;;;;;;21.04;14.84;94093.94;5091104;28;20030;-49
2021/03/07 10:48:08;;;;;;;1.27;0.98;;;;;;;18.59;17.51;94096.94;5083652;28;20051;-53
2021/03/07 10:50:35;;;;;;;1.42;1.33;;;;;;;18.83;18.35;94084.00;5071665;28;20020;-49
2021/03/07 10:53:01;;;;;;;2.05;1.40;;;;;;;18.62;17.98;94081.78;5071227;28;20066;-49
2021/03/07 10:55:27;;;;;;;0.70;0.70;;;;;;;18.38;17.27;94076.41;5069739;28;20109;-49
2021/03/07 10:57:53;;;;;;;0.60;0.47;;;;;;;18.36;18.89;94062.28;5068999;28;20047;-47
2021/03/07 11:00:20;;;;;;;1.15;0.77;;;;;;;18.83;17.86;94065.16;5069602;28;20029;-47
2021/03/07 11:02:45;;;;;;;4.28;2.17;;;;;;;19.54;16.84;94059.06;5078359;28;20035;-48
2021/03/07 11:05:14;;;;;;;1.02;1.00;;;;;;;19.70;17.53;94048.25;5082460;28;20526;-50
2021/03/07 11:07:41;;;;;;;;;;;;;;;19.85;18.75;94045.84;5082771;28;20058;-50
2021/03/07 11:10:07;;;;;;;8.57;1.38;;;;;;;19.84;17.14;94027.53;5087978;28;20384;-48
2021/03/07 11:12:33;;;;;;;0.90;0.90;;;;;;;19.30;17.36;94037.69;5088395;28;20024;-48
2021/03/07 11:14:58;;;;;;;1.08;0.55;;;;;;;19.73;15.94;94038.66;5084542;28;20039;-53
2021/03/07 11:17:24;;;;;;;1.40;1.30;;;;;;;18.80;16.13;94043.19;5085408;28;20484;-51
2021/03/07 11:19:49;;;;;;;0.75;0.47;;;;;;;19.04;16.95;94036.56;5089792;28;20031;-53
2021/03/07 11:22:15;;;;;;;1.00;0.75;;;;;;;19.34;16.47;94026.81;5076928;28;20020;-50
2021/03/07 11:24:41;;;;;;;1.13;1.00;;;;;;;18.41;17.04;94020.03;5087037;28;20024;-49
2021/03/07 11:27:07;;;;;;;0.85;0.82;;;;;;;17.85;16.88;94016.53;5087868;28;20035;-53
2021/03/07 11:29:33;;;;;;;0.73;0.73;;;;;;;16.48;18.70;94000.09;5089274;28;20519;-49
2021/03/07 11:31:58;;;;;;;2.90;0.80;;;;;;;16.69;18.33;93974.63;5086687;28;20027;-51
2021/03/07 11:34:23;;;;;;;2.92;0.65;;;;;;;17.08;18.77;94007.03;5089520;28;20511;-52
2021/03/07 11:36:49;;;;;;;0.60;0.60;;;;;;;17.71;17.41;94001.50;5089484;28;20416;-53
2021/03/07 11:39:15;;;;;;;0.60;0.60;;;;;;;17.48;17.92;93998.28;5089230;28;20047;-50
2021/03/07 11:41:41;;;;;;;0.60;0.60;;;;;;;16.99;19.48;93993.03;5089290;28;20454;-51